Time;durP1;ratioP1;P1;durP2;ratioP2;P2;SDS_P1;SDS_P2;PMS_P1;PMS_P2;Temp;Humidity;BMP_temperature;BMP_pressure;BME280_temperature;BME280_humidity;BME280_pressure;Samples;Min_cycle;Max_cycle;Signal;HPM_P1;HPM_P2
2022/06/11 00:01:41;;;;;;;13.50;2.50;;;13.10;99.90;;;;;;5035426;28;20037;-94
2022/06/11 00:04:11;;;;;;;17.95;2.40;;;13.20;99.90;;;;;;5048586;28;20075;-93
2022/06/11 00:06:42;;;;;;;22.90;2.88;;;13.10;99.90;;;;;;5050195;28;20052;-95
2022/06/11 00:09:09;;;;;;;17.47;3.20;;;13.10;99.90;;;;;;5042997;28;20030;-95
2022/06/11 00:11:36;;;;;;;16.27;2.47;;;13.10;99.90;;;;;;5045448;28;20057;-95
2022/06/11 00:14:03;;;;;;;22.05;3.20;;;13.10;99.90;;;;;;5047888;28;20033;-95
2022/06/11 00:16:29;;;;;;;23.45;3.00;;;13.10;99.90;;;;;;5029244;28;20025;-94
2022/06/11 00:18:57;;;;;;;24.30;3.17;;;13.10;99.90;;;;;;5047638;28;20041;-93
2022/06/11 00:21:25;;;;;;;20.08;3.38;;;13.10;99.90;;;;;;5034294;28;20048;-92
2022/06/11 00:23:50;;;;;;;17.35;2.60;;;13.10;99.90;;;;;;5033868;28;20061;-95
2022/06/11 00:26:17;;;;;;;19.90;2.75;;;13.10;99.90;;;;;;5035227;28;20036;-93
2022/06/11 00:28:43;;;;;;;17.77;3.13;;;13.00;99.90;;;;;;5033331;28;20032;-95
2022/06/11 00:31:10;;;;;;;16.85;2.80;;;13.00;99.90;;;;;;5036727;28;20064;-92
2022/06/11 00:33:37;;;;;;;18.38;3.05;;;13.00;99.90;;;;;;5032740;28;20128;-94
2022/06/11 00:36:05;;;;;;;20.38;2.40;;;13.00;99.90;;;;;;5034338;28;20025;-95
2022/06/11 00:38:30;;;;;;;22.35;3.60;;;13.00;99.90;;;;;;5028225;28;20045;-93
2022/06/11 00:40:56;;;;;;;19.92;3.60;;;13.00;99.90;;;;;;5030775;28;20060;-95
2022/06/11 00:43:25;;;;;;;17.50;2.50;;;13.00;99.90;;;;;;5034583;28;20053;-94
2022/06/11 00:46:20;;;;;;;23.90;2.90;;;13.00;99.90;;;;;;5022730;28;20026;-94
2022/06/11 00:48:47;;;;;;;22.80;3.10;;;12.90;99.90;;;;;;4966006;28;20038;-96
2022/06/11 00:51:17;;;;;;;24.17;5.40;;;12.90;99.90;;;;;;4980548;28;20098;-96
2022/06/11 00:53:50;;;;;;;17.08;3.22;;;12.90;99.90;;;;;;4978995;28;20027;-95
2022/06/11 00:56:33;;;;;;;14.00;2.45;;;12.90;99.90;;;;;;4971235;28;20031;-94
2022/06/11 00:59:04;;;;;;;21.50;2.63;;;12.90;99.90;;;;;;4993526;28;20069;-96
2022/06/11 01:01:33;;;;;;;24.27;3.53;;;12.90;99.90;;;;;;4978176;28;20027;-93
2022/06/11 01:04:01;;;;;;;21.20;3.38;;;12.90;99.90;;;;;;4977907;28;20022;-93
2022/06/11 01:06:53;;;;;;;14.75;2.47;;;12.90;99.90;;;;;;4981772;28;20026;-94
2022/06/11 01:09:28;;;;;;;12.30;2.33;;;12.80;99.90;;;;;;4982850;28;20023;-95
2022/06/11 01:12:16;;;;;;;21.25;2.95;;;12.90;99.90;;;;;;4987217;28;20030;-93
2022/06/11 01:15:09;;;;;;;17.30;2.45;;;12.80;99.90;;;;;;4980773;28;20081;-94
2022/06/11 01:17:52;;;;;;;19.52;3.30;;;12.80;99.90;;;;;;4974971;28;20253;-94
2022/06/11 01:20:39;;;;;;;24.40;3.00;;;12.80;99.90;;;;;;4990549;28;20043;-94
2022/06/11 01:23:37;;;;;;;16.08;2.47;;;12.80;99.90;;;;;;4972041;28;20507;-96
2022/06/11 01:26:22;;;;;;;18.50;3.22;;;12.80;99.90;;;;;;5007784;28;20124;-95
2022/06/11 01:29:06;;;;;;;25.67;3.10;;;12.80;99.90;;;;;;5033816;28;20010;-93
2022/06/11 01:31:40;;;;;;;19.52;2.92;;;12.80;99.90;;;;;;5026367;28;20034;-94
2022/06/11 01:34:25;;;;;;;30.38;3.35;;;12.70;99.90;;;;;;5037836;28;20030;-94
2022/06/11 01:36:59;;;;;;;23.92;2.80;;;12.70;99.90;;;;;;5031115;28;20033;-95
2022/06/11 01:39:43;;;;;;;26.30;4.43;;;12.70;99.90;;;;;;5027412;28;20029;-95
2022/06/11 01:42:26;;;;;;;21.63;3.13;;;12.60;99.90;;;;;;5034269;28;20026;-89
2022/06/11 01:45:11;;;;;;;16.58;2.70;;;12.60;99.90;;;;;;5043037;28;20022;-94
2022/06/11 01:47:37;;;;;;;22.05;3.25;;;12.60;99.90;;;;;;5033871;28;20046;-94
2022/06/11 01:50:06;;;;;;;20.17;2.45;;;12.60;99.90;;;;;;5032807;28;20064;-94
2022/06/11 01:52:40;;;;;;;20.17;4.07;;;12.50;99.90;;;;;;5030346;28;20037;-93
2022/06/11 01:55:40;;;;;;;19.25;2.50;;;12.50;99.90;;;;;;5022728;28;20036;-95
2022/06/11 01:58:25;;;;;;;17.88;2.75;;;12.50;99.90;;;;;;5027154;28;20093;-93
2022/06/11 02:01:15;;;;;;;21.05;2.53;;;12.50;99.90;;;;;;5023179;28;20029;-95
2022/06/11 02:04:05;;;;;;;20.95;3.67;;;12.40;99.90;;;;;;5027553;28;20036;-94
2022/06/11 02:06:47;;;;;;;17.42;2.95;;;12.50;99.90;;;;;;5034325;28;20041;-94
2022/06/11 02:09:30;;;;;;;14.73;2.35;;;12.40;99.90;;;;;;5036197;28;20026;-94
2022/06/11 02:12:08;;;;;;;24.58;3.50;;;12.40;99.90;;;;;;5021170;28;20037;-92
2022/06/11 02:14:47;;;;;;;24.88;3.05;;;12.40;99.90;;;;;;5027530;28;20025;-95
2022/06/11 02:17:21;;;;;;;21.90;2.65;;;12.40;99.90;;;;;;5041834;28;20049;-92
2022/06/11 02:20:10;;;;;;;21.33;3.33;;;12.40;99.90;;;;;;5031415;28;20016;-94
2022/06/11 02:22:57;;;;;;;22.05;4.03;;;12.30;99.90;;;;;;5029850;28;20059;-96
2022/06/11 02:25:48;;;;;;;22.95;3.15;;;12.30;99.90;;;;;;5010344;28;20119;-92
2022/06/11 02:28:19;;;;;;;20.73;3.38;;;12.30;99.90;;;;;;5007883;28;20026;-93
2022/06/11 02:30:46;;;;;;;21.00;3.08;;;12.30;99.90;;;;;;5023134;28;20452;-96
2022/06/11 02:33:14;;;;;;;26.02;3.00;;;12.30;99.90;;;;;;5021421;28;20033;-94
2022/06/11 02:35:50;;;;;;;22.30;2.97;;;12.30;99.90;;;;;;5017346;28;20868;-93
2022/06/11 02:38:20;;;;;;;15.60;3.65;;;12.30;99.90;;;;;;4998864;28;20034;-94
2022/06/11 02:41:12;;;;;;;19.95;2.83;;;12.30;99.90;;;;;;5023067;28;20007;-93
2022/06/11 02:43:38;;;;;;;18.30;2.08;;;12.30;99.90;;;;;;5015742;28;20073;-93
2022/06/11 02:48:53;;;;;;;18.50;2.53;;;12.20;99.90;;;;;;5002882;28;20065;-92
2022/06/11 02:51:20;;;;;;;18.33;2.60;;;12.20;99.90;;;;;;5028672;28;20032;-94
2022/06/11 02:53:46;;;;;;;24.08;3.60;;;12.20;99.90;;;;;;5025246;28;20023;-95
2022/06/11 02:56:14;;;;;;;19.30;2.50;;;12.20;99.90;;;;;;5020908;28;20078;-96
2022/06/11 02:58:42;;;;;;;24.20;3.20;;;12.20;99.90;;;;;;5002488;28;20065;-95
2022/06/11 03:01:09;;;;;;;25.70;2.60;;;12.20;99.90;;;;;;5023713;28;20019;-95
2022/06/11 03:03:36;;;;;;;26.02;2.80;;;12.10;99.90;;;;;;4997256;28;20065;-94
2022/06/11 03:06:04;;;;;;;23.60;3.78;;;12.10;99.90;;;;;;5027895;28;20086;-93
2022/06/11 03:08:31;;;;;;;11.90;2.47;;;12.10;99.90;;;;;;5031171;28;20025;-95
2022/06/11 03:10:57;;;;;;;17.63;3.22;;;12.10;99.90;;;;;;5008083;28;20038;-93
2022/06/11 03:13:24;;;;;;;14.10;2.70;;;12.10;99.90;;;;;;5024479;28;20046;-92
2022/06/11 03:15:51;;;;;;;15.93;2.75;;;12.10;99.90;;;;;;5012855;28;20046;-93
2022/06/11 03:18:17;;;;;;;24.08;2.72;;;12.10;99.90;;;;;;5025402;28;20312;-94
2022/06/11 03:20:43;;;;;;;15.82;2.53;;;12.10;99.90;;;;;;5036842;28;20040;-96
2022/06/11 03:23:10;;;;;;;14.15;2.58;;;12.00;99.90;;;;;;5034275;28;20037;-92
2022/06/11 03:25:36;;;;;;;17.13;2.47;;;12.00;99.90;;;;;;5033698;28;20021;-92
2022/06/11 03:28:07;;;;;;;19.20;3.03;;;12.10;99.90;;;;;;5033556;28;20025;-93
2022/06/11 03:30:34;;;;;;;14.75;3.15;;;12.00;99.90;;;;;;5044715;28;20034;-94
2022/06/11 03:33:01;;;;;;;20.60;2.55;;;12.10;99.90;;;;;;5030936;28;20040;-93
2022/06/11 03:35:26;;;;;;;26.98;3.88;;;12.10;99.90;;;;;;5030226;28;20038;-93
2022/06/11 03:37:52;;;;;;;22.02;3.15;;;12.10;99.90;;;;;;5037574;28;20045;-92
2022/06/11 03:40:18;;;;;;;19.98;2.55;;;12.10;99.90;;;;;;5033727;28;20076;-94
2022/06/11 03:42:44;;;;;;;17.45;3.22;;;12.10;99.90;;;;;;5035768;28;20046;-95
2022/06/11 03:45:11;;;;;;;16.98;2.38;;;12.20;99.90;;;;;;5036202;28;20035;-94
2022/06/11 03:47:38;;;;;;;19.92;3.03;;;12.20;99.90;;;;;;5035345;28;20009;-95
2022/06/11 03:50:10;;;;;;;22.98;3.17;;;12.20;99.90;;;;;;5037028;28;20044;-95
2022/06/11 03:52:41;;;;;;;11.05;1.90;;;12.20;99.90;;;;;;5032506;28;20014;-95
2022/06/11 03:55:07;;;;;;;;;;;12.20;99.90;;;;;;5037193;28;20084;-95
2022/06/11 03:57:34;;;;;;;18.58;2.60;;;12.20;99.90;;;;;;5056060;28;19983;-94
2022/06/11 04:00:02;;;;;;;20.85;3.10;;;12.10;99.90;;;;;;5033607;28;20037;-93
2022/06/11 04:02:28;;;;;;;17.63;2.50;;;12.20;99.90;;;;;;5033145;28;20021;-93
2022/06/11 04:04:55;;;;;;;20.60;2.65;;;12.20;99.90;;;;;;5030988;28;20109;-94
2022/06/11 04:07:21;;;;;;;18.25;2.85;;;12.10;99.90;;;;;;5034815;28;20052;-94
2022/06/11 04:09:47;;;;;;;21.05;3.55;;;12.10;99.90;;;;;;5031718;28;20021;-96
2022/06/11 04:12:16;;;;;;;17.27;3.08;;;12.10;99.90;;;;;;5034289;28;20032;-95
2022/06/11 04:14:45;;;;;;;13.40;2.25;;;12.10;99.90;;;;;;5051168;28;20086;-94
2022/06/11 04:17:23;;;;;;;17.63;2.78;;;12.10;99.90;;;;;;5033045;28;20060;-95
2022/06/11 04:19:51;;;;;;;12.57;2.38;;;12.00;99.90;;;;;;5034708;28;20524;-95
2022/06/11 04:22:17;;;;;;;22.52;2.72;;;12.00;99.90;;;;;;5013750;28;20042;-94
2022/06/11 04:24:43;;;;;;;18.73;2.47;;;12.00;99.90;;;;;;5023243;28;20100;-96
2022/06/11 04:27:12;;;;;;;18.48;2.60;;;12.00;99.90;;;;;;5014778;28;20022;-96
2022/06/11 04:29:42;;;;;;;20.55;3.05;;;12.00;99.90;;;;;;5024731;28;20034;-95
2022/06/11 04:32:09;;;;;;;26.52;2.67;;;12.10;99.90;;;;;;5003189;28;20019;-96
2022/06/11 04:34:35;;;;;;;25.02;2.67;;;12.00;99.90;;;;;;5011123;28;20026;-95
2022/06/11 04:37:01;;;;;;;17.48;3.03;;;12.10;99.90;;;;;;5018380;28;20022;-95
2022/06/11 04:39:30;;;;;;;18.60;3.20;;;12.10;99.90;;;;;;5021721;28;20030;-94
2022/06/11 04:41:56;;;;;;;14.70;2.40;;;12.10;99.90;;;;;;5023227;28;20045;-95
2022/06/11 04:44:24;;;;;;;14.75;2.53;;;12.10;99.90;;;;;;5007258;28;20049;-96
2022/06/11 04:46:50;;;;;;;14.38;2.60;;;12.10;99.90;;;;;;5011535;28;20039;-94
2022/06/11 04:49:17;;;;;;;12.60;2.38;;;12.10;99.90;;;;;;5027373;28;20209;-94
2022/06/11 04:51:43;;;;;;;12.82;2.20;;;12.10;99.90;;;;;;5027127;28;20026;-93
2022/06/11 04:54:12;;;;;;;19.75;3.25;;;12.10;99.90;;;;;;5031392;28;20122;-95
2022/06/11 04:56:40;;;;;;;19.02;3.25;;;12.20;99.90;;;;;;5029568;28;20042;-95
2022/06/11 04:59:06;;;;;;;19.25;2.70;;;12.20;99.90;;;;;;5014399;28;20030;-95
2022/06/11 05:01:49;;;;;;;18.08;3.05;;;12.20;99.90;;;;;;5010408;28;20040;-95
2022/06/11 05:04:18;;;;;;;14.95;3.13;;;12.20;99.90;;;;;;5011606;28;20026;-96
2022/06/11 05:06:46;;;;;;;16.25;2.38;;;12.20;99.90;;;;;;5026906;28;20094;-95
2022/06/11 05:09:16;;;;;;;16.10;3.47;;;12.20;99.90;;;;;;4994924;28;20037;-95
2022/06/11 05:11:42;;;;;;;21.38;2.58;;;12.20;99.90;;;;;;5025732;28;20023;-94
2022/06/11 05:14:10;;;;;;;16.13;3.25;;;12.20;99.90;;;;;;5029685;28;20026;-94
2022/06/11 05:16:41;;;;;;;19.63;2.50;;;12.20;99.90;;;;;;5024999;28;20030;-94
2022/06/11 05:19:09;;;;;;;13.57;2.63;;;12.20;99.90;;;;;;5010891;28;20035;-94
2022/06/11 05:21:37;;;;;;;16.15;3.03;;;12.20;99.90;;;;;;5027391;28;20030;-94
2022/06/11 05:24:03;;;;;;;20.60;2.95;;;12.20;99.90;;;;;;5028428;28;20103;-94
2022/06/11 05:26:35;;;;;;;20.45;3.15;;;12.20;99.90;;;;;;5032333;28;20038;-94
2022/06/11 05:29:07;;;;;;;23.48;2.85;;;12.30;99.90;;;;;;5030452;28;20280;-91
2022/06/11 05:31:33;;;;;;;21.85;2.88;;;12.30;99.90;;;;;;5014583;28;20024;-90
2022/06/11 05:33:59;;;;;;;18.20;2.88;;;12.30;99.90;;;;;;5015231;28;20045;-94
2022/06/11 05:36:27;;;;;;;20.10;2.63;;;12.30;99.90;;;;;;5015180;28;20025;-91
2022/06/11 05:38:52;;;;;;;15.88;4.18;;;12.30;99.90;;;;;;4998844;28;20038;-93
2022/06/11 05:41:19;;;;;;;17.20;2.55;;;12.40;99.90;;;;;;5011588;28;20022;-94
2022/06/11 05:43:45;;;;;;;18.42;2.50;;;12.40;99.90;;;;;;5010180;28;20022;-94
2022/06/11 05:46:16;;;;;;;12.75;2.30;;;12.40;99.90;;;;;;4998372;28;20029;-91
2022/06/11 05:48:45;;;;;;;19.88;2.60;;;12.50;99.90;;;;;;4991370;28;20031;-93
2022/06/11 05:51:18;;;;;;;14.18;2.15;;;12.50;99.90;;;;;;4985190;28;20034;-92
2022/06/11 05:53:46;;;;;;;16.10;2.65;;;12.60;99.90;;;;;;5008638;28;20030;-94
2022/06/11 05:56:16;;;;;;;17.30;2.92;;;12.60;99.90;;;;;;4994594;28;20031;-93
2022/06/11 05:58:55;;;;;;;24.52;2.70;;;12.60;99.90;;;;;;4997512;28;20042;-94
2022/06/11 06:01:31;;;;;;;22.77;3.15;;;12.70;99.90;;;;;;4990461;28;20025;-94
2022/06/11 06:03:59;;;;;;;14.35;2.70;;;12.70;99.90;;;;;;5001212;28;20070;-93
2022/06/11 06:06:25;;;;;;;18.73;2.90;;;12.70;99.90;;;;;;5007616;28;20033;-93
2022/06/11 06:08:52;;;;;;;17.42;2.28;;;12.80;99.90;;;;;;5001745;28;20026;-95
2022/06/11 06:11:18;;;;;;;18.17;3.08;;;12.90;99.90;;;;;;5011700;28;20031;-92
2022/06/11 06:13:47;;;;;;;18.48;2.63;;;12.90;99.90;;;;;;5009703;28;20023;-95
2022/06/11 06:16:22;;;;;;;17.85;2.45;;;12.90;99.90;;;;;;5010661;28;20046;-95
2022/06/11 06:18:49;;;;;;;21.35;3.20;;;12.90;99.90;;;;;;5014706;28;20027;-93
2022/06/11 06:21:17;;;;;;;12.02;2.25;;;12.90;99.90;;;;;;5010128;28;20045;-95
2022/06/11 06:23:43;;;;;;;20.27;3.00;;;13.00;99.90;;;;;;5017837;28;20038;-94
2022/06/11 06:26:08;;;;;;;23.15;4.13;;;13.00;99.90;;;;;;5016871;28;20036;-96
2022/06/11 06:28:35;;;;;;;12.55;2.63;;;12.90;99.90;;;;;;5016524;28;20040;-93
2022/06/11 06:31:03;;;;;;;25.35;2.83;;;13.00;99.90;;;;;;5016191;28;20117;-92
2022/06/11 06:33:30;;;;;;;18.20;2.63;;;12.90;99.90;;;;;;5000354;28;20098;-94
2022/06/11 06:35:57;;;;;;;17.25;2.83;;;13.00;99.90;;;;;;5004496;28;20018;-93
2022/06/11 06:38:26;;;;;;;18.67;2.25;;;13.00;99.90;;;;;;4980740;28;20092;-94
2022/06/11 06:40:52;;;;;;;12.10;2.53;;;13.10;99.90;;;;;;5015974;28;20022;-93
2022/06/11 06:43:18;;;;;;;16.85;3.15;;;13.10;99.90;;;;;;5004339;28;20029;-94
2022/06/11 06:45:44;;;;;;;19.98;3.40;;;13.10;99.90;;;;;;5007189;28;20159;-95
2022/06/11 06:48:15;;;;;;;16.85;3.00;;;13.10;99.90;;;;;;5024738;28;20030;-93
2022/06/11 06:50:42;;;;;;;15.38;2.83;;;13.20;99.90;;;;;;5011463;28;20060;-94
2022/06/11 06:53:08;;;;;;;14.77;2.78;;;13.30;99.90;;;;;;5008183;28;20033;-95
2022/06/11 06:55:35;;;;;;;17.30;2.70;;;13.30;99.90;;;;;;5022671;28;20088;-96
2022/06/11 06:58:01;;;;;;;16.10;2.67;;;13.30;99.90;;;;;;5009733;28;20033;-95
2022/06/11 07:00:27;;;;;;;18.60;2.88;;;13.40;99.90;;;;;;5011512;28;20400;-94
2022/06/11 07:02:59;;;;;;;19.90;2.72;;;13.50;99.90;;;;;;5015542;28;20022;-95
2022/06/11 07:05:26;;;;;;;16.95;2.65;;;13.50;99.90;;;;;;5022465;28;20029;-95
2022/06/11 07:07:55;;;;;;;15.77;2.75;;;13.60;99.90;;;;;;5023722;28;20067;-95
2022/06/11 07:10:24;;;;;;;18.70;2.40;;;13.60;99.90;;;;;;5022231;28;20033;-94
2022/06/11 07:12:50;;;;;;;14.75;3.72;;;13.60;99.90;;;;;;5030061;28;20037;-94
2022/06/11 07:15:16;;;;;;;9.60;2.38;;;13.70;99.90;;;;;;5021659;28;20036;-96
2022/06/11 07:17:50;;;;;;;14.23;2.80;;;13.80;99.90;;;;;;5018980;28;21335;-94
2022/06/11 07:20:20;;;;;;;10.75;2.30;;;13.90;99.90;;;;;;5002316;28;20030;-94
2022/06/11 07:23:14;;;;;;;17.15;2.40;;;14.00;99.90;;;;;;5003022;28;20049;-95
2022/06/11 07:25:43;;;;;;;7.90;2.00;;;14.10;99.90;;;;;;5000987;28;20033;-94
2022/06/11 07:28:26;;;;;;;17.27;2.47;;;14.20;99.90;;;;;;5000631;28;20034;-93
2022/06/11 07:30:59;;;;;;;16.13;2.88;;;14.30;99.90;;;;;;4999304;28;20030;-95
2022/06/11 07:33:25;;;;;;;15.57;2.70;;;14.50;99.90;;;;;;4984555;28;20022;-94
2022/06/11 07:35:53;;;;;;;17.77;2.85;;;14.60;99.90;;;;;;5008489;28;20018;-91
2022/06/11 07:38:22;;;;;;;13.25;2.45;;;14.70;99.90;;;;;;5006354;28;20038;-95
2022/06/11 07:40:48;;;;;;;10.23;2.28;;;14.70;99.90;;;;;;4996710;28;20018;-95
2022/06/11 07:43:17;;;;;;;13.73;2.30;;;14.80;99.90;;;;;;5003003;28;20018;-93
2022/06/11 07:45:45;;;;;;;17.05;2.25;;;14.90;99.90;;;;;;4997493;28;20042;-94
2022/06/11 07:48:12;;;;;;;13.73;2.58;;;15.00;99.90;;;;;;4992345;28;20050;-94
2022/06/11 07:50:42;;;;;;;18.17;2.53;;;15.00;99.90;;;;;;4997231;28;20467;-95
2022/06/11 07:53:08;;;;;;;14.20;2.70;;;15.20;99.90;;;;;;5005650;28;20026;-94
2022/06/11 07:55:35;;;;;;;14.48;2.70;;;15.20;99.90;;;;;;4998284;28;20084;-93
2022/06/11 07:58:01;;;;;;;9.95;2.83;;;15.30;99.90;;;;;;4997756;28;20500;-92
2022/06/11 08:00:36;;;;;;;13.20;2.47;;;15.30;99.90;;;;;;5022934;28;20033;-93
2022/06/11 08:03:04;;;;;;;20.27;2.83;;;15.40;99.90;;;;;;5005180;28;20029;-92
2022/06/11 08:05:32;;;;;;;15.18;2.50;;;15.40;99.90;;;;;;5003009;28;20034;-93
2022/06/11 08:07:57;;;;;;;16.45;2.88;;;15.50;99.90;;;;;;5004017;28;20029;-93
2022/06/11 08:10:30;;;;;;;17.40;3.10;;;15.50;99.90;;;;;;5004828;28;20045;-92
2022/06/11 08:12:57;;;;;;;9.95;2.20;;;15.60;99.90;;;;;;5012702;28;20025;-94
2022/06/11 08:15:23;;;;;;;7.82;2.28;;;15.60;99.90;;;;;;5011685;28;20026;-93
2022/06/11 08:17:49;;;;;;;12.07;2.20;;;15.50;99.90;;;;;;4994694;28;20061;-94
2022/06/11 08:20:23;;;;;;;13.75;2.25;;;15.50;99.90;;;;;;5029548;28;20022;-94
2022/06/11 08:22:50;;;;;;;16.50;2.75;;;15.50;99.90;;;;;;4988452;28;20051;-94
2022/06/11 08:25:18;;;;;;;15.55;2.20;;;15.50;99.90;;;;;;4973786;28;20125;-94
2022/06/11 08:27:46;;;;;;;7.82;2.35;;;15.50;99.70;;;;;;4996912;28;20038;-95
2022/06/11 08:30:16;;;;;;;19.35;3.17;;;15.60;99.70;;;;;;4981028;28;20062;-93
2022/06/11 08:32:43;;;;;;;12.07;2.40;;;15.70;99.80;;;;;;5002389;28;20023;-94
2022/06/11 08:35:12;;;;;;;11.35;2.65;;;15.70;99.60;;;;;;4983516;28;20026;-94
2022/06/11 08:37:39;;;;;;;12.93;2.33;;;16.00;99.00;;;;;;4984388;28;20125;-94
2022/06/11 08:40:11;;;;;;;18.25;3.17;;;16.10;98.50;;;;;;4993094;28;20141;-94
2022/06/11 08:42:43;;;;;;;13.85;2.47;;;16.20;98.00;;;;;;4982462;28;20221;-94
2022/06/11 08:45:20;;;;;;;12.05;2.65;;;16.30;97.30;;;;;;4996759;28;20027;-93
2022/06/11 08:47:50;;;;;;;13.90;2.40;;;16.30;97.00;;;;;;4972659;28;20112;-95
2022/06/11 08:50:22;;;;;;;11.18;2.47;;;16.30;96.70;;;;;;4967085;28;20027;-93
2022/06/11 08:52:48;;;;;;;16.90;2.88;;;16.40;96.70;;;;;;4991126;28;20022;-96
2022/06/11 08:55:14;;;;;;;7.65;2.47;;;16.40;96.50;;;;;;4982822;28;20085;-93
2022/06/11 08:57:54;;;;;;;12.35;2.33;;;16.40;95.60;;;;;;4998347;28;20480;-93
2022/06/11 09:00:29;;;;;;;11.30;2.38;;;16.40;94.50;;;;;;4993629;28;20033;-92
2022/06/11 09:03:03;;;;;;;11.85;1.88;;;16.30;93.90;;;;;;4985845;28;20042;-94
2022/06/11 09:05:57;;;;;;;8.45;1.90;;;16.30;93.70;;;;;;4987997;28;20030;-94
2022/06/11 09:08:42;;;;;;;10.15;1.98;;;16.30;93.10;;;;;;4988536;28;20022;-94
2022/06/11 09:11:19;;;;;;;11.63;2.30;;;16.30;93.30;;;;;;4992314;28;20035;-93
2022/06/11 09:14:22;;;;;;;13.05;2.40;;;16.40;93.30;;;;;;4986381;28;20034;-94
2022/06/11 09:17:06;;;;;;;12.88;2.25;;;16.50;93.00;;;;;;4980626;28;20165;-94
2022/06/11 09:20:07;;;;;;;14.02;4.60;;;16.60;92.80;;;;;;4973837;28;20077;-93
2022/06/11 09:22:39;;;;;;;9.23;2.35;;;16.60;92.40;;;;;;5007398;28;20044;-93
2022/06/11 09:25:37;;;;;;;8.68;1.90;;;16.70;92.20;;;;;;5017602;28;20084;-95
2022/06/11 09:28:22;;;;;;;17.00;2.65;;;16.60;91.60;;;;;;5008356;28;20030;-91
2022/06/11 09:30:57;;;;;;;13.32;2.20;;;16.60;91.50;;;;;;5003762;28;20113;-93
2022/06/11 09:33:32;;;;;;;11.05;2.30;;;16.60;91.50;;;;;;5002700;28;20509;-94
2022/06/11 09:36:04;;;;;;;8.98;2.33;;;16.70;91.80;;;;;;4998104;28;20037;-92
2022/06/11 09:38:48;;;;;;;14.35;1.73;;;16.70;91.40;;;;;;5016955;28;20066;-94
2022/06/11 09:41:46;;;;;;;8.43;2.03;;;16.80;90.80;;;;;;5006611;28;20092;-95
2022/06/11 09:44:17;;;;;;;7.18;2.35;;;16.80;89.50;;;;;;5007299;28;20026;-94
2022/06/11 09:46:47;;;;;;;9.10;1.95;;;16.80;89.00;;;;;;5025254;28;20046;-93
2022/06/11 09:49:24;;;;;;;12.20;3.00;;;16.80;89.00;;;;;;5025852;28;20014;-93
2022/06/11 09:52:26;;;;;;;10.25;2.03;;;16.90;89.30;;;;;;5007632;28;20041;-92
2022/06/11 09:55:14;;;;;;;13.25;2.33;;;16.90;89.10;;;;;;5000172;28;20038;-93
2022/06/11 09:58:05;;;;;;;11.00;2.25;;;16.90;89.50;;;;;;5007010;28;20041;-94
2022/06/11 10:00:38;;;;;;;12.52;2.53;;;16.90;89.80;;;;;;5024305;28;20053;-95
2022/06/11 10:03:35;;;;;;;16.25;2.50;;;16.90;89.50;;;;;;5023691;28;20085;-94
2022/06/11 10:06:16;;;;;;;10.23;2.17;;;16.90;89.60;;;;;;5023099;28;20077;-92
2022/06/11 10:08:59;;;;;;;8.53;2.07;;;16.90;89.40;;;;;;5007833;28;20033;-93
2022/06/11 10:11:31;;;;;;;9.88;2.30;;;16.80;90.00;;;;;;5022750;28;20025;-94
2022/06/11 10:14:28;;;;;;;8.77;2.10;;;16.80;90.20;;;;;;5008357;28;20081;-93
2022/06/11 10:17:19;;;;;;;9.20;2.85;;;16.70;90.20;;;;;;5011819;28;20065;-94
2022/06/11 10:20:00;;;;;;;;;;;16.60;90.30;;;;;;5027638;28;20084;-96
2022/06/11 10:22:54;;;;;;;8.18;2.85;;;16.60;90.50;;;;;;5012134;28;19964;-93
2022/06/11 10:25:33;;;;;;;7.45;2.30;;;16.60;90.50;;;;;;5015481;28;20053;-95
2022/06/11 10:28:08;;;;;;;11.82;2.92;;;16.50;90.60;;;;;;5028871;28;20010;-93
2022/06/11 10:30:54;;;;;;;7.38;2.30;;;16.50;90.60;;;;;;5010749;28;20030;-93
2022/06/11 10:33:27;;;;;;;11.98;2.53;;;16.60;90.30;;;;;;5009798;28;20030;-93
2022/06/11 10:36:11;;;;;;;12.73;2.63;;;16.70;90.30;;;;;;5026881;28;20037;-94
2022/06/11 10:38:41;;;;;;;6.53;2.13;;;16.80;90.30;;;;;;5026166;28;20045;-94
2022/06/11 10:41:26;;;;;;;9.13;2.15;;;16.90;90.00;;;;;;5025253;28;20113;-93
2022/06/11 10:44:04;;;;;;;7.50;1.90;;;17.00;88.80;;;;;;5023641;28;20052;-93
2022/06/11 10:46:32;;;;;;;6.15;2.00;;;16.90;88.70;;;;;;5028403;28;20041;-94
2022/06/11 10:49:01;;;;;;;11.52;2.28;;;17.00;88.70;;;;;;5033877;28;20033;-94
2022/06/11 10:51:33;;;;;;;7.60;2.22;;;17.00;88.90;;;;;;5034014;28;20038;-94
2022/06/11 10:54:04;;;;;;;11.52;3.03;;;17.00;88.90;;;;;;5022202;28;20045;-93
2022/06/11 10:57:11;;;;;;;7.07;2.33;;;17.10;88.90;;;;;;5024904;28;20030;-94
2022/06/11 10:59:48;;;;;;;17.60;3.25;;;17.20;89.10;;;;;;5005516;28;20285;-94
2022/06/11 11:02:20;;;;;;;7.78;2.20;;;17.20;88.90;;;;;;5008568;28;20093;-94
2022/06/11 11:05:09;;;;;;;15.68;3.20;;;17.30;89.00;;;;;;5031015;28;20046;-94
2022/06/11 11:07:54;;;;;;;12.63;2.58;;;17.30;89.00;;;;;;5036091;28;20014;-94
2022/06/11 11:10:22;;;;;;;12.85;2.75;;;17.40;88.90;;;;;;5029462;28;20141;-93
2022/06/11 11:12:52;;;;;;;8.85;2.50;;;17.40;88.90;;;;;;5027915;28;20122;-92
2022/06/11 11:15:24;;;;;;;9.13;2.40;;;17.60;89.00;;;;;;5028850;28;20029;-94
2022/06/11 11:17:56;;;;;;;10.77;2.33;;;17.60;88.20;;;;;;5023893;28;20048;-91
2022/06/11 11:20:40;;;;;;;9.57;2.25;;;17.60;87.20;;;;;;5026603;28;20026;-93
2022/06/11 11:23:13;;;;;;;7.20;1.75;;;17.60;86.50;;;;;;5027033;28;20125;-93
2022/06/11 11:25:59;;;;;;;9.82;1.92;;;17.60;85.70;;;;;;5031821;28;20078;-94
2022/06/11 11:28:33;;;;;;;5.40;2.22;;;17.50;85.00;;;;;;5032093;28;20014;-91
2022/06/11 11:31:08;;;;;;;7.07;1.77;;;17.60;85.10;;;;;;5038434;28;20073;-92
2022/06/11 11:33:43;;;;;;;3.70;1.50;;;17.60;85.10;;;;;;5006094;28;20030;-94
2022/06/11 11:36:12;;;;;;;5.40;1.52;;;17.70;84.20;;;;;;5021444;28;20030;-93
2022/06/11 11:38:42;;;;;;;5.82;1.33;;;18.00;83.50;;;;;;5021557;28;20075;-93
2022/06/11 11:41:25;;;;;;;7.32;1.85;;;18.30;83.60;;;;;;5003278;28;20045;-94
2022/06/11 11:43:51;;;;;;;5.95;1.55;;;18.60;82.30;;;;;;5019742;28;20031;-92
2022/06/11 11:46:33;;;;;;;6.35;1.60;;;18.90;80.50;;;;;;5028763;28;20026;-93
2022/06/11 11:49:01;;;;;;;2.38;1.10;;;19.20;79.90;;;;;;5020507;28;20102;-93
2022/06/11 11:51:41;;;;;;;8.82;1.60;;;19.60;78.40;;;;;;5020725;28;20026;-95
2022/06/11 11:54:23;;;;;;;6.03;1.75;;;20.00;77.90;;;;;;5008954;28;20038;-93
2022/06/11 11:57:05;;;;;;;6.07;1.55;;;20.40;76.20;;;;;;5022728;28;20076;-94
2022/06/11 11:59:49;;;;;;;8.10;1.95;;;20.50;74.50;;;;;;5025360;28;20033;-94
2022/06/11 12:02:42;;;;;;;7.45;1.83;;;20.50;73.80;;;;;;5025874;28;20036;-95
2022/06/11 12:05:35;;;;;;;7.60;1.85;;;20.40;73.10;;;;;;5007920;28;20097;-94
2022/06/11 12:08:24;;;;;;;8.77;1.88;;;20.40;73.50;;;;;;5008448;28;20026;-94
2022/06/11 12:10:55;;;;;;;5.13;1.80;;;20.20;73.20;;;;;;4993066;28;20061;-94
2022/06/11 12:14:01;;;;;;;6.00;1.48;;;20.30;73.60;;;;;;5027649;28;20032;-93
2022/06/11 12:16:30;;;;;;;9.27;1.63;;;20.40;73.80;;;;;;4946241;29;20480;-94
2022/06/11 12:19:11;;;;;;;9.90;1.70;;;20.40;72.90;;;;;;4928261;29;20056;-94
2022/06/11 12:21:42;;;;;;;10.25;2.13;;;20.50;72.50;;;;;;4929199;29;20194;-94
2022/06/11 12:24:41;;;;;;;8.30;2.22;;;20.60;72.20;;;;;;4932401;29;20062;-93
2022/06/11 12:27:35;;;;;;;12.68;1.67;;;20.80;71.70;;;;;;4949271;29;20102;-95
2022/06/11 12:30:05;;;;;;;6.13;1.70;;;20.90;71.30;;;;;;4934360;29;20151;-95
2022/06/11 12:32:34;;;;;;;5.75;1.80;;;20.80;71.00;;;;;;4936546;29;20038;-92
2022/06/11 12:35:01;;;;;;;7.82;1.75;;;20.70;70.90;;;;;;4936194;29;20176;-93
2022/06/11 12:37:44;;;;;;;5.07;1.67;;;20.80;70.60;;;;;;4944016;29;20071;-95
2022/06/11 12:40:24;;;;;;;5.95;2.15;;;21.00;70.00;;;;;;4910822;29;20032;-94
2022/06/11 12:43:01;;;;;;;3.05;1.30;;;21.20;69.90;;;;;;4933223;29;20028;-94
2022/06/11 12:45:32;;;;;;;5.18;1.23;;;21.50;68.60;;;;;;4932481;29;20076;-94
2022/06/11 12:48:05;;;;;;;3.35;1.27;;;21.80;68.00;;;;;;4928732;29;20084;-94
2022/06/11 12:50:42;;;;;;;3.90;1.27;;;22.00;66.30;;;;;;4968708;28;20041;-95
2022/06/11 12:53:27;;;;;;;15.05;2.40;;;22.00;64.50;;;;;;5009411;28;20035;-93
2022/06/11 12:56:18;;;;;;;4.63;1.50;;;22.00;64.50;;;;;;4990906;28;20094;-95
2022/06/11 12:58:50;;;;;;;;;;;22.10;64.50;;;;;;5008662;28;20030;-93
2022/06/11 13:01:25;;;;;;;6.55;1.50;;;22.30;64.60;;;;;;4998931;28;19912;-94
2022/06/11 13:04:15;;;;;;;4.72;1.20;;;22.50;63.80;;;;;;5007143;28;20033;-94
2022/06/11 13:06:59;;;;;;;7.53;1.52;;;22.60;63.50;;;;;;5022917;28;20033;-95
2022/06/11 13:09:40;;;;;;;3.83;1.20;;;22.70;62.60;;;;;;5026968;28;20048;-93
2022/06/11 13:12:33;;;;;;;6.05;1.30;;;22.60;62.80;;;;;;5025756;28;20060;-96
2022/06/11 13:15:15;;;;;;;4.45;1.40;;;22.80;63.30;;;;;;5028700;28;20026;-94
2022/06/11 13:17:57;;;;;;;4.07;1.20;;;23.00;62.30;;;;;;5025189;28;20038;-94